Terminal Aerodrome Forecast
Issued by NWS

Home | Current Version | Previous Version | Text Only | Print | Product List | Glossary On
Versions: 1 2 3 4 5 6 7 8 9 10 11 12 13 14 15
000
FTUS45 KRIW 241700
TAFWRL
TAF
KWRL 241720Z 2418/2518 36007KT 6SM -RA SCT012 OVC025
      TEMPO 2418/2422 4SM -RA BR OVC012
     FM242200 35010KT P6SM VCTS SCT030 BKN050CB
     FM250300 VRB05KT 6SM -RA BR SCT015 OVC030
     FM251500 35008KT P6SM SCT025 BKN050=

USA.gov is the U.S. government's official web portal to all federal, state and local government web resources and services.